sensor_id;sensor_type;location;lat;lon;timestamp;temperature;humidity
40249;DHT22;25969;49.970;11.062;2023-08-06T00:02:32;14.20;99.90
40249;DHT22;25969;49.970;11.062;2023-08-06T00:12:33;14.20;99.90
40249;DHT22;25969;49.970;11.062;2023-08-06T00:22:35;14.20;99.90
40249;DHT22;25969;49.970;11.062;2023-08-06T00:32:36;14.10;99.90
40249;DHT22;25969;49.970;11.062;2023-08-06T00:42:37;14.10;99.90
40249;DHT22;25969;49.970;11.062;2023-08-06T00:52:38;14.00;99.90
40249;DHT22;25969;49.970;11.062;2023-08-06T01:02:39;14.00;99.90
40249;DHT22;25969;49.970;11.062;2023-08-06T01:12:51;14.20;99.90
40249;DHT22;25969;49.970;11.062;2023-08-06T01:22:55;14.30;99.90
40249;DHT22;25969;49.970;11.062;2023-08-06T01:33:00;14.20;99.90
40249;DHT22;25969;49.970;11.062;2023-08-06T01:43:03;14.10;99.90
40249;DHT22;25969;49.970;11.062;2023-08-06T01:53:04;14.00;99.90
40249;DHT22;25969;49.970;11.062;2023-08-06T02:03:05;14.00;99.90
40249;DHT22;25969;49.970;11.062;2023-08-06T02:13:05;13.90;99.90
40249;DHT22;25969;49.970;11.062;2023-08-06T02:23:06;13.90;99.90
40249;DHT22;25969;49.970;11.062;2023-08-06T02:33:07;13.90;99.90
40249;DHT22;25969;49.970;11.062;2023-08-06T02:43:07;13.70;99.90
40249;DHT22;25969;49.970;11.062;2023-08-06T02:53:08;13.80;99.90
40249;DHT22;25969;49.970;11.062;2023-08-06T03:03:10;13.70;99.90
40249;DHT22;25969;49.970;11.062;2023-08-06T03:13:21;13.60;99.90
40249;DHT22;25969;49.970;11.062;2023-08-06T03:23:22;13.50;99.90
40249;DHT22;25969;49.970;11.062;2023-08-06T03:33:22;13.40;99.90
40249;DHT22;25969;49.970;11.062;2023-08-06T03:43:23;13.40;99.90
40249;DHT22;25969;49.970;11.062;2023-08-06T03:53:25;13.30;99.90
40249;DHT22;25969;49.970;11.062;2023-08-06T04:03:25;13.30;99.90
40249;DHT22;25969;49.970;11.062;2023-08-06T04:13:26;13.20;99.90
40249;DHT22;25969;49.970;11.062;2023-08-06T04:23:27;13.20;99.90
40249;DHT22;25969;49.970;11.062;2023-08-06T04:33:32;13.40;99.90
40249;DHT22;25969;49.970;11.062;2023-08-06T04:43:37;13.60;99.90
40249;DHT22;25969;49.970;11.062;2023-08-06T04:53:37;13.70;99.90
40249;DHT22;25969;49.970;11.062;2023-08-06T05:03:38;13.80;99.90
40249;DHT22;25969;49.970;11.062;2023-08-06T05:13:39;13.90;99.90
40249;DHT22;25969;49.970;11.062;2023-08-06T05:23:40;14.00;99.90
40249;DHT22;25969;49.970;11.062;2023-08-06T05:33:40;14.20;99.90
40249;DHT22;25969;49.970;11.062;2023-08-06T05:43:41;14.60;99.90
40249;DHT22;25969;49.970;11.062;2023-08-06T05:53:42;15.00;99.90
40249;DHT22;25969;49.970;11.062;2023-08-06T06:03:42;15.10;99.90
40249;DHT22;25969;49.970;11.062;2023-08-06T06:13:43;15.20;99.90
40249;DHT22;25969;49.970;11.062;2023-08-06T06:23:44;15.30;99.90
40249;DHT22;25969;49.970;11.062;2023-08-06T06:33:44;15.10;99.90
40249;DHT22;25969;49.970;11.062;2023-08-06T06:43:45;15.30;99.90
40249;DHT22;25969;49.970;11.062;2023-08-06T06:53:46;15.70;99.90
40249;DHT22;25969;49.970;11.062;2023-08-06T07:03:47;16.30;99.90
40249;DHT22;25969;49.970;11.062;2023-08-06T07:13:49;16.60;99.90
40249;DHT22;25969;49.970;11.062;2023-08-06T07:23:50;17.30;99.90
40249;DHT22;25969;49.970;11.062;2023-08-06T07:33:51;17.80;99.90
40249;DHT22;25969;49.970;11.062;2023-08-06T07:43:53;17.90;99.90
40249;DHT22;25969;49.970;11.062;2023-08-06T07:53:53;17.80;99.90
40249;DHT22;25969;49.970;11.062;2023-08-06T08:03:54;18.00;99.90
40249;DHT22;25969;49.970;11.062;2023-08-06T08:13:55;17.50;99.90
40249;DHT22;25969;49.970;11.062;2023-08-06T08:23:56;17.90;99.90
40249;DHT22;25969;49.970;11.062;2023-08-06T08:33:57;18.50;99.90
40249;DHT22;25969;49.970;11.062;2023-08-06T08:43:59;19.50;99.90
40249;DHT22;25969;49.970;11.062;2023-08-06T08:54:04;17.30;99.90
40249;DHT22;25969;49.970;11.062;2023-08-06T09:04:05;16.40;99.90
40249;DHT22;25969;49.970;11.062;2023-08-06T09:14:07;16.50;99.90
40249;DHT22;25969;49.970;11.062;2023-08-06T09:24:09;17.90;99.90
40249;DHT22;25969;49.970;11.062;2023-08-06T09:34:21;17.00;99.90
40249;DHT22;25969;49.970;11.062;2023-08-06T09:44:24;16.40;99.90
40249;DHT22;25969;49.970;11.062;2023-08-06T09:54:26;18.90;99.90
40249;DHT22;25969;49.970;11.062;2023-08-06T10:04:29;17.00;99.90
40249;DHT22;25969;49.970;11.062;2023-08-06T10:14:35;19.20;99.90
40249;DHT22;25969;49.970;11.062;2023-08-06T10:24:55;18.00;99.90
40249;DHT22;25969;49.970;11.062;2023-08-06T10:34:59;19.20;99.90
40249;DHT22;25969;49.970;11.062;2023-08-06T10:45:17;17.10;99.90
40249;DHT22;25969;49.970;11.062;2023-08-06T10:55:26;19.10;99.90
40249;DHT22;25969;49.970;11.062;2023-08-06T11:05:27;19.70;95.70
40249;DHT22;25969;49.970;11.062;2023-08-06T11:15:28;23.60;86.00
40249;DHT22;25969;49.970;11.062;2023-08-06T11:25:30;19.40;94.40
40249;DHT22;25969;49.970;11.062;2023-08-06T11:35:34;22.40;94.40
40249;DHT22;25969;49.970;11.062;2023-08-06T11:45:35;23.90;82.80
40249;DHT22;25969;49.970;11.062;2023-08-06T11:55:36;23.00;82.80
40249;DHT22;25969;49.970;11.062;2023-08-06T12:05:37;19.90;88.10
40249;DHT22;25969;49.970;11.062;2023-08-06T12:15:39;18.50;96.00
40249;DHT22;25969;49.970;11.062;2023-08-06T12:25:39;23.70;77.20
40249;DHT22;25969;49.970;11.062;2023-08-06T12:35:40;19.00;94.80
40249;DHT22;25969;49.970;11.062;2023-08-06T12:45:41;19.60;92.90
40249;DHT22;25969;49.970;11.062;2023-08-06T12:55:41;20.40;88.30
40249;DHT22;25969;49.970;11.062;2023-08-06T13:05:43;24.30;78.90
40249;DHT22;25969;49.970;11.062;2023-08-06T13:15:44;22.10;77.40
40249;DHT22;25969;49.970;11.062;2023-08-06T13:25:45;18.80;92.80
40249;DHT22;25969;49.970;11.062;2023-08-06T13:35:46;18.50;98.90
40249;DHT22;25969;49.970;11.062;2023-08-06T13:45:46;19.40;96.00
40249;DHT22;25969;49.970;11.062;2023-08-06T13:55:47;18.60;98.50
40249;DHT22;25969;49.970;11.062;2023-08-06T14:05:48;15.00;99.90
40249;DHT22;25969;49.970;11.062;2023-08-06T14:15:49;14.50;99.90
40249;DHT22;25969;49.970;11.062;2023-08-06T14:25:50;15.30;99.90
40249;DHT22;25969;49.970;11.062;2023-08-06T14:35:50;15.70;99.90
40249;DHT22;25969;49.970;11.062;2023-08-06T14:45:51;16.10;99.90
40249;DHT22;25969;49.970;11.062;2023-08-06T14:55:52;16.30;99.90
40249;DHT22;25969;49.970;11.062;2023-08-06T15:05:52;16.50;99.90
40249;DHT22;25969;49.970;11.062;2023-08-06T15:15:53;15.50;99.90
40249;DHT22;25969;49.970;11.062;2023-08-06T15:25:54;15.00;99.90
40249;DHT22;25969;49.970;11.062;2023-08-06T15:35:56;14.80;99.90
40249;DHT22;25969;49.970;11.062;2023-08-06T15:45:58;14.40;99.90
40249;DHT22;25969;49.970;11.062;2023-08-06T15:55:58;14.30;99.90
40249;DHT22;25969;49.970;11.062;2023-08-06T16:05:59;14.30;99.90
40249;DHT22;25969;49.970;11.062;2023-08-06T16:16:00;14.20;99.90
40249;DHT22;25969;49.970;11.062;2023-08-06T16:26:00;14.20;99.90
40249;DHT22;25969;49.970;11.062;2023-08-06T16:36:01;14.00;99.90
40249;DHT22;25969;49.970;11.062;2023-08-06T16:46:02;14.10;99.90
40249;DHT22;25969;49.970;11.062;2023-08-06T16:56:03;14.00;99.90
40249;DHT22;25969;49.970;11.062;2023-08-06T17:06:04;13.80;99.90
40249;DHT22;25969;49.970;11.062;2023-08-06T17:16:05;13.70;99.90
40249;DHT22;25969;49.970;11.062;2023-08-06T17:26:05;13.60;99.90
40249;DHT22;25969;49.970;11.062;2023-08-06T17:36:06;13.60;99.90
40249;DHT22;25969;49.970;11.062;2023-08-06T17:46:07;13.60;99.90
40249;DHT22;25969;49.970;11.062;2023-08-06T17:56:08;13.40;99.90
40249;DHT22;25969;49.970;11.062;2023-08-06T18:06:09;13.20;99.90
40249;DHT22;25969;49.970;11.062;2023-08-06T18:16:09;13.20;99.90
40249;DHT22;25969;49.970;11.062;2023-08-06T18:26:10;13.10;99.90
40249;DHT22;25969;49.970;11.062;2023-08-06T18:36:11;13.00;99.90
40249;DHT22;25969;49.970;11.062;2023-08-06T18:46:12;13.00;99.90
40249;DHT22;25969;49.970;11.062;2023-08-06T18:56:12;12.90;99.90
40249;DHT22;25969;49.970;11.062;2023-08-06T19:06:13;12.80;99.90
40249;DHT22;25969;49.970;11.062;2023-08-06T19:16:14;12.70;99.90
40249;DHT22;25969;49.970;11.062;2023-08-06T19:26:15;12.70;99.90
40249;DHT22;25969;49.970;11.062;2023-08-06T19:36:15;12.70;99.90
40249;DHT22;25969;49.970;11.062;2023-08-06T19:46:16;12.60;99.90
40249;DHT22;25969;49.970;11.062;2023-08-06T19:56:17;12.50;99.90
40249;DHT22;25969;49.970;11.062;2023-08-06T20:06:17;12.60;99.90
40249;DHT22;25969;49.970;11.062;2023-08-06T20:16:18;12.50;99.90
40249;DHT22;25969;49.970;11.062;2023-08-06T20:26:19;12.50;99.90
40249;DHT22;25969;49.970;11.062;2023-08-06T20:36:20;12.50;99.90
40249;DHT22;25969;49.970;11.062;2023-08-06T20:46:21;12.50;99.90
40249;DHT22;25969;49.970;11.062;2023-08-06T20:56:21;12.50;99.90
40249;DHT22;25969;49.970;11.062;2023-08-06T21:06:22;12.50;99.90
40249;DHT22;25969;49.970;11.062;2023-08-06T21:16:23;12.40;99.90
40249;DHT22;25969;49.970;11.062;2023-08-06T21:26:24;12.40;99.90
40249;DHT22;25969;49.970;11.062;2023-08-06T21:36:24;12.40;99.90
40249;DHT22;25969;49.970;11.062;2023-08-06T21:46:25;12.30;99.90
40249;DHT22;25969;49.970;11.062;2023-08-06T21:56:26;12.30;99.90
